Time;durP1;ratioP1;P1;durP2;ratioP2;P2;SDS_P1;SDS_P2;PMS_P1;PMS_P2;Temp;Humidity;BMP_temperature;BMP_pressure;BME280_temperature;BME280_humidity;BME280_pressure;Samples;Min_cycle;Max_cycle;Signal;HPM_P1;HPM_P2
2022/10/19 00:01:07;;;;;;;24.42;10.15;;;;;;;10.08;57.46;100532.97;5077155;28;20254;-69
2022/10/19 00:03:34;;;;;;;21.75;9.52;;;;;;;9.85;57.57;100527.94;5076313;28;20020;-72
2022/10/19 00:06:08;;;;;;;22.88;9.98;;;;;;;9.91;57.38;100526.56;5074631;28;20103;-70
2022/10/19 00:08:34;;;;;;;21.23;9.98;;;;;;;10.02;57.42;100523.78;5071804;28;20108;-70
2022/10/19 00:11:00;;;;;;;20.42;9.43;;;;;;;10.14;57.04;100524.47;5076201;28;20267;-70
2022/10/19 00:13:25;;;;;;;20.52;9.82;;;;;;;9.89;56.97;100509.97;5076342;28;20329;-70
2022/10/19 00:15:51;;;;;;;20.50;9.23;;;;;;;9.87;57.80;100514.59;5076082;28;20475;-73
2022/10/19 00:18:16;;;;;;;17.33;9.32;;;;;;;9.81;57.82;100517.78;5074421;28;20088;-70
2022/10/19 00:20:41;;;;;;;21.55;10.13;;;;;;;9.84;57.50;100504.28;5074700;28;20385;-73
2022/10/19 00:23:07;;;;;;;24.10;9.85;;;;;;;9.94;57.70;100502.47;5075733;28;20036;-72
2022/10/19 00:25:32;;;;;;;18.55;9.07;;;;;;;9.92;57.21;100486.72;5074611;28;20333;-69
2022/10/19 00:27:58;;;;;;;19.38;8.88;;;;;;;9.91;57.03;100487.72;5074303;28;20020;-72
2022/10/19 00:30:23;;;;;;;23.85;10.80;;;;;;;9.84;57.17;100491.88;5072899;28;20028;-72
2022/10/19 00:32:48;;;;;;;28.55;11.32;;;;;;;9.76;57.01;100485.63;5075087;28;20036;-72
2022/10/19 00:35:14;;;;;;;25.42;11.10;;;;;;;9.69;57.38;100485.34;5073867;28;20037;-72
2022/10/19 00:37:39;;;;;;;28.98;11.63;;;;;;;9.75;57.18;100478.66;5072427;28;20024;-69
2022/10/19 00:40:05;;;;;;;22.48;11.07;;;;;;;9.56;57.65;100472.38;5076398;28;20097;-72
2022/10/19 00:42:31;;;;;;;34.22;13.63;;;;;;;9.37;58.16;100475.00;5073663;28;20318;-69
2022/10/19 00:44:59;;;;;;;28.23;11.25;;;;;;;9.45;58.23;100466.41;5074566;28;20043;-73
2022/10/19 00:47:25;;;;;;;24.02;11.70;;;;;;;9.34;58.29;100477.88;5071471;28;20199;-72
2022/10/19 00:49:51;;;;;;;23.10;11.10;;;;;;;9.48;58.30;100466.94;5074945;28;20040;-71
2022/10/19 00:52:19;;;;;;;28.17;12.35;;;;;;;9.48;57.80;100472.25;5074748;28;20037;-70
2022/10/19 00:54:47;;;;;;;25.80;12.05;;;;;;;9.51;57.80;100461.38;5077226;28;20087;-72
2022/10/19 00:57:13;;;;;;;25.23;10.60;;;;;;;9.50;57.93;100453.59;5074634;28;20028;-72
2022/10/19 00:59:40;;;;;;;23.85;11.20;;;;;;;9.36;57.95;100440.75;5075762;28;20063;-70
2022/10/19 01:02:06;;;;;;;25.25;10.50;;;;;;;9.45;57.46;100451.38;5071566;28;20036;-70
2022/10/19 01:04:34;;;;;;;20.95;8.98;;;;;;;9.37;58.09;100453.03;5074958;28;20137;-72
2022/10/19 01:07:02;;;;;;;20.02;9.57;;;;;;;9.38;57.77;100442.31;5073332;28;20515;-72
2022/10/19 01:09:27;;;;;;;21.10;9.73;;;;;;;9.40;57.58;100444.81;5077160;28;20305;-71
2022/10/19 01:12:11;;;;;;;22.23;9.15;;;;;;;9.23;58.11;100447.13;5073553;28;20032;-72
2022/10/19 01:14:57;;;;;;;23.55;9.68;;;;;;;9.29;57.82;100435.19;5074532;28;20039;-72
2022/10/19 01:17:35;;;;;;;20.48;8.60;;;;;;;9.38;57.58;100437.03;5075280;28;20024;-72
2022/10/19 01:20:19;;;;;;;24.27;9.68;;;;;;;9.29;57.89;100430.72;5072225;28;20025;-72
2022/10/19 01:22:59;;;;;;;24.65;11.00;;;;;;;9.08;58.67;100434.44;5075032;28;20043;-72
2022/10/19 01:25:52;;;;;;;19.83;9.50;;;;;;;9.07;58.37;100433.59;5075788;28;20055;-72
2022/10/19 01:28:36;;;;;;;19.38;9.32;;;;;;;9.20;58.41;100420.16;5073464;28;20350;-72
2022/10/19 01:31:40;;;;;;;22.48;10.68;;;;;;;9.18;58.08;100419.44;5071288;28;20242;-72
2022/10/19 01:34:17;;;;;;;25.80;9.77;;;;;;;9.28;57.91;100423.78;5070384;28;20036;-70
2022/10/19 01:36:48;;;;;;;18.70;8.95;;;;;;;9.21;57.95;100416.53;5075054;28;20773;-70
2022/10/19 01:39:22;;;;;;;21.77;9.75;;;;;;;9.21;58.10;100414.72;5073246;28;20318;-72
2022/10/19 01:42:10;;;;;;;17.88;8.55;;;;;;;9.20;58.00;100414.84;5072793;28;20036;-72
2022/10/19 01:45:00;;;;;;;15.68;8.18;;;;;;;9.29;57.12;100414.88;5070780;28;20029;-72
2022/10/19 01:47:33;;;;;;;16.38;8.18;;;;;;;9.28;57.27;100413.19;5071203;28;20040;-72
2022/10/19 01:50:09;;;;;;;16.90;8.52;;;;;;;8.90;57.70;100365.59;5073833;28;20175;-70
2022/10/19 01:52:36;;;;;;;21.38;9.05;;;;;;;9.20;57.58;100412.22;5072406;28;20104;-72
2022/10/19 01:55:03;;;;;;;14.00;7.75;;;;;;;8.99;57.95;100403.56;5073493;28;20068;-72
2022/10/19 01:57:39;;;;;;;17.63;8.13;;;;;;;8.94;58.16;100404.81;5072850;28;20226;-72
2022/10/19 02:00:07;;;;;;;14.63;7.30;;;;;;;9.00;57.47;100403.44;5070831;28;20063;-72
2022/10/19 02:02:39;;;;;;;14.18;6.97;;;;;;;9.00;57.69;100397.31;5074207;28;20086;-72
2022/10/19 02:05:06;;;;;;;17.20;7.60;;;;;;;8.96;57.93;100394.94;5071054;28;20315;-70
2022/10/19 02:07:33;;;;;;;16.33;7.40;;;;;;;8.84;58.56;100398.66;5071786;28;20352;-70
2022/10/19 02:09:59;;;;;;;22.88;7.70;;;;;;;8.85;58.34;100387.13;5073087;28;20041;-70
2022/10/19 02:12:27;;;;;;;17.45;7.05;;;;;;;8.78;58.72;100387.81;5072479;28;20029;-70
2022/10/19 02:14:58;;;;;;;19.92;7.82;;;;;;;8.80;58.55;100388.50;5072668;28;20036;-72
2022/10/19 02:17:29;;;;;;;14.48;7.15;;;;;;;8.76;58.69;100382.66;5070099;28;20765;-72
2022/10/19 02:19:56;;;;;;;20.58;7.82;;;;;;;8.75;58.58;100380.16;5074331;28;20040;-70
2022/10/19 02:22:21;;;;;;;16.90;7.28;;;;;;;8.63;58.77;100382.06;5073959;28;20044;-70
2022/10/19 02:24:47;;;;;;;15.15;6.10;;;;;;;8.70;58.38;100385.84;5070156;28;20242;-70
2022/10/19 02:27:12;;;;;;;14.93;7.10;;;;;;;8.74;58.22;100366.13;5073517;28;20305;-70
2022/10/19 02:29:39;;;;;;;15.68;7.25;;;;;;;8.80;58.39;100380.56;5074466;28;20067;-72
2022/10/19 02:32:05;;;;;;;17.45;7.88;;;;;;;8.76;58.02;100374.72;5074096;28;20024;-70
2022/10/19 02:34:32;;;;;;;17.15;8.05;;;;;;;8.60;58.46;100375.25;5079295;28;20227;-72
2022/10/19 02:36:57;;;;;;;15.70;7.78;;;;;;;8.64;58.67;100381.09;5075662;28;20428;-70
2022/10/19 02:39:23;;;;;;;15.82;8.23;;;;;;;8.60;58.74;100363.84;5077660;28;20032;-72
2022/10/19 02:42:01;;;;;;;18.42;7.78;;;;;;;8.61;58.50;100376.06;5076512;28;20058;-70
2022/10/19 02:44:52;;;;;;;20.30;8.40;;;;;;;8.72;57.81;100368.06;5080093;28;20048;-72
2022/10/19 02:47:24;;;;;;;20.48;9.63;;;;;;;8.63;58.17;100360.94;5070447;28;20032;-70
2022/10/19 02:49:50;;;;;;;23.10;8.90;;;;;;;8.61;58.54;100373.44;5077026;28;20353;-72
2022/10/19 02:52:16;;;;;;;17.50;8.85;;;;;;;8.64;58.45;100366.09;5074408;28;20033;-72
2022/10/19 02:54:43;;;;;;;25.80;10.20;;;;;;;8.59;58.47;100364.81;5076065;28;20032;-72
2022/10/19 02:57:16;;;;;;;16.77;9.50;;;;;;;8.58;58.44;100357.88;5076383;28;20032;-71
2022/10/19 02:59:41;;;;;;;16.40;9.00;;;;;;;8.46;58.86;100359.78;5077230;28;20040;-72
2022/10/19 03:02:07;;;;;;;17.40;8.68;;;;;;;8.42;58.81;100353.09;5075338;28;20045;-70
2022/10/19 03:04:32;;;;;;;17.80;8.35;;;;;;;8.32;59.41;100357.44;5077832;28;20039;-70
2022/10/19 03:06:58;;;;;;;15.20;7.93;;;;;;;8.40;59.00;100355.03;5079677;28;20036;-72
2022/10/19 03:09:23;;;;;;;12.98;7.15;;;;;;;8.30;59.87;100349.66;5075595;28;20095;-70
2022/10/19 03:11:49;;;;;;;13.60;7.70;;;;;;;8.22;60.06;100343.38;5076723;28;20104;-72
2022/10/19 03:14:14;;;;;;;16.65;8.93;;;;;;;8.12;60.17;100334.56;5076652;28;20051;-71
2022/10/19 03:16:39;;;;;;;18.30;10.90;;;;;;;8.31;60.18;100339.94;5077554;28;20028;-70
2022/10/19 03:19:05;;;;;;;20.77;11.32;;;;;;;8.23;60.00;100345.03;5078164;28;20096;-72
2022/10/19 03:21:32;;;;;;;22.77;9.25;;;;;;;8.21;60.16;100339.91;5077285;28;20051;-72
2022/10/19 03:23:59;;;;;;;18.83;7.88;;;;;;;7.96;61.74;100342.97;5074730;28;20069;-70
2022/10/19 03:26:25;;;;;;;14.52;7.90;;;;;;;8.06;61.05;100343.84;5076911;28;20059;-72
2022/10/19 03:28:51;;;;;;;14.15;7.47;;;;;;;8.26;60.74;100342.97;5077396;28;20032;-72
2022/10/19 03:31:17;;;;;;;17.23;9.27;;;;;;;8.42;59.92;100339.06;5076068;28;20051;-70
2022/10/19 03:33:42;;;;;;;16.95;9.07;;;;;;;8.39;59.87;100328.78;5074071;28;20083;-70
2022/10/19 03:36:21;;;;;;;19.20;9.20;;;;;;;8.41;59.66;100334.75;5073203;28;20036;-70
2022/10/19 03:38:49;;;;;;;20.20;8.25;;;;;;;8.32;60.25;100337.19;5072846;28;20278;-70
2022/10/19 03:41:15;;;;;;;13.63;7.80;;;;;;;8.25;59.87;100330.75;5073453;28;20032;-70
2022/10/19 03:43:40;;;;;;;24.83;9.40;;;;;;;8.20;60.24;100325.03;5078936;28;20417;-72
2022/10/19 03:46:06;;;;;;;12.57;7.63;;;;;;;8.16;60.09;100328.91;5074348;28;20055;-72
2022/10/19 03:48:32;;;;;;;16.63;7.72;;;;;;;8.01;60.97;100328.41;5076622;28;20024;-70
2022/10/19 03:51:00;;;;;;;13.57;7.57;;;;;;;8.05;60.80;100326.34;5075188;28;20028;-72
2022/10/19 03:53:25;;;;;;;24.42;7.30;;;;;;;8.11;60.46;100332.91;5074242;28;20051;-70
2022/10/19 03:55:50;;;;;;;22.83;7.63;;;;;;;8.13;60.37;100323.06;5073545;28;20028;-70
2022/10/19 03:58:17;;;;;;;14.90;8.98;;;;;;;8.02;60.99;100309.00;5074244;28;20055;-69
2022/10/19 04:00:42;;;;;;;18.35;8.00;;;;;;;8.20;60.25;100324.19;5077261;28;20044;-72
2022/10/19 04:03:07;;;;;;;19.60;7.80;;;;;;;8.33;60.20;100324.88;5076102;28;20357;-71
2022/10/19 04:05:33;;;;;;;15.85;7.50;;;;;;;8.30;60.07;100315.34;5071442;28;20103;-70
2022/10/19 04:07:58;;;;;;;17.08;7.25;;;;;;;8.33;59.84;100316.94;5073744;28;20032;-73
2022/10/19 04:10:24;;;;;;;17.05;6.95;;;;;;;8.30;59.82;100315.34;5076141;28;20272;-72
2022/10/19 04:12:49;;;;;;;17.92;7.28;;;;;;;8.07;60.17;100305.97;5073540;28;20036;-71
2022/10/19 04:15:14;;;;;;;10.98;6.32;;;;;;;7.98;60.98;100310.22;5072984;28;20074;-73
2022/10/19 04:17:40;;;;;;;13.48;7.00;;;;;;;8.04;61.06;100313.31;5074144;28;20096;-70
2022/10/19 04:20:06;;;;;;;12.45;6.43;;;;;;;8.14;60.55;100304.47;5076625;28;20104;-73
2022/10/19 04:22:31;;;;;;;13.82;6.50;;;;;;;8.10;60.96;100313.59;5077548;28;20043;-72
2022/10/19 04:24:56;;;;;;;15.93;6.63;;;;;;;8.14;60.35;100311.53;5072964;28;20033;-70
2022/10/19 04:27:22;;;;;;;23.20;6.68;;;;;;;8.22;60.27;100306.44;5074846;28;20042;-73
2022/10/19 04:29:47;;;;;;;20.17;6.78;;;;;;;8.02;60.47;100308.16;5074791;28;20100;-72
2022/10/19 04:32:13;;;;;;;18.05;6.18;;;;;;;8.02;60.52;100309.00;5076598;28;20044;-70
2022/10/19 04:34:38;;;;;;;35.55;10.13;;;;;;;7.95;60.84;100301.75;5075861;28;20651;-70
2022/10/19 04:37:03;;;;;;;25.75;11.32;;;;;;;7.93;60.94;100304.50;5075799;28;20095;-70
2022/10/19 04:39:29;;;;;;;31.27;18.20;;;;;;;7.93;61.72;100295.75;5075515;28;20114;-73
2022/10/19 04:41:54;;;;;;;48.42;30.30;;;;;;;8.02;61.24;100294.97;5073683;28;20091;-70
2022/10/19 04:44:20;;;;;;;50.58;28.77;;;;;;;8.03;61.23;100294.00;5075165;28;20255;-72
2022/10/19 04:46:45;;;;;;;42.83;24.08;;;;;;;7.83;61.58;100287.81;5074625;28;20037;-72
2022/10/19 04:49:11;;;;;;;34.17;18.33;;;;;;;7.96;61.08;100287.59;5073908;28;20183;-72
2022/10/19 04:51:36;;;;;;;25.58;14.27;;;;;;;7.95;61.79;100289.38;5074416;28;20029;-73
2022/10/19 04:54:03;;;;;;;33.72;14.07;;;;;;;7.95;61.67;100280.66;5075146;28;20079;-72
2022/10/19 04:56:31;;;;;;;37.03;12.82;;;;;;;8.06;61.45;100283.19;5076318;28;20028;-70
2022/10/19 04:58:58;;;;;;;26.42;12.07;;;;;;;8.14;60.83;100288.63;5076204;28;20116;-72
2022/10/19 05:01:24;;;;;;;17.13;8.65;;;;;;;8.07;61.88;100292.78;5073922;28;20111;-72
2022/10/19 05:03:58;;;;;;;25.48;7.80;;;;;;;8.16;61.73;100286.69;5075975;28;20096;-71
2022/10/19 05:06:24;;;;;;;18.38;8.07;;;;;;;8.06;62.45;100290.25;5075819;28;20096;-70
2022/10/19 05:08:50;;;;;;;19.77;9.05;;;;;;;8.31;60.98;100284.53;5074850;28;20236;-73
2022/10/19 05:11:16;;;;;;;18.45;9.18;;;;;;;8.41;61.21;100295.16;5075983;28;20024;-70
2022/10/19 05:13:42;;;;;;;17.67;7.40;;;;;;;8.44;60.99;100285.19;5073353;28;20346;-71
2022/10/19 05:16:11;;;;;;;72.03;23.90;;;;;;;8.45;60.88;100292.13;5071764;28;20407;-71
2022/10/19 05:18:36;;;;;;;62.92;22.27;;;;;;;8.29;61.44;100295.22;5074640;28;20028;-70
2022/10/19 05:21:05;;;;;;;39.97;11.70;;;;;;;8.37;61.04;100291.13;5073531;28;20365;-70
2022/10/19 05:23:32;;;;;;;18.90;7.03;;;;;;;8.48;60.93;100286.56;5076201;28;20031;-70
2022/10/19 05:26:18;;;;;;;17.20;6.55;;;;;;;8.35;60.91;100285.16;5080195;28;20024;-73
2022/10/19 05:28:55;;;;;;;184.27;73.13;;;;;;;8.50;61.08;100297.00;5081342;28;20036;-72
2022/10/19 05:31:22;;;;;;;113.07;43.25;;;;;;;8.56;60.47;100285.91;5081482;28;20252;-73
2022/10/19 05:33:47;;;;;;;42.85;18.08;;;;;;;8.65;60.92;100287.72;5081525;28;20046;-71
2022/10/19 05:36:17;;;;;;;36.05;15.43;;;;;;;8.81;60.14;100297.75;5081328;28;20241;-73
2022/10/19 05:38:44;;;;;;;89.78;31.60;;;;;;;8.69;60.87;100298.84;5081181;28;20115;-71
2022/10/19 05:41:10;;;;;;;67.80;25.55;;;;;;;8.67;61.09;100292.88;5081471;28;20024;-70
2022/10/19 05:43:36;;;;;;;102.50;39.30;;;;;;;8.87;60.44;100291.91;5081396;28;20040;-73
2022/10/19 05:46:06;;;;;;;69.70;26.67;;;;;;;9.11;59.61;100294.16;5081102;28;20215;-72
2022/10/19 05:48:33;;;;;;;77.10;28.25;;;;;;;9.21;60.04;100303.75;5080270;28;20085;-72
2022/10/19 05:51:00;;;;;;;68.22;25.45;;;;;;;9.34;59.80;100299.97;5081005;28;20226;-70
2022/10/19 05:53:27;;;;;;;35.58;11.88;;;;;;;9.56;59.43;100287.31;5079977;28;20056;-68
2022/10/19 05:55:52;;;;;;;24.63;10.52;;;;;;;9.67;59.06;100294.25;5081016;28;20738;-71
2022/10/19 05:58:17;;;;;;;26.90;10.40;;;;;;;9.99;58.22;100293.88;5081138;28;20028;-71
2022/10/19 06:00:43;;;;;;;26.60;8.38;;;;;;;10.28;57.18;100287.66;5081407;28;20099;-69
2022/10/19 06:03:08;;;;;;;17.55;7.55;;;;;;;10.99;55.46;100293.09;5081248;28;20131;-71
2022/10/19 06:05:37;;;;;;;20.02;6.65;;;;;;;10.98;56.66;100299.38;5081530;28;20099;-73
2022/10/19 06:08:02;;;;;;;30.38;11.60;;;;;;;11.09;55.91;100286.72;5083768;28;20036;-71
2022/10/19 06:10:27;;;;;;;23.40;7.93;;;;;;;11.15;56.15;100287.94;5085285;28;20044;-69
2022/10/19 06:12:53;;;;;;;19.33;7.03;;;;;;;11.15;56.33;100287.94;5084929;28;20033;-69
2022/10/19 06:15:18;;;;;;;15.45;6.70;;;;;;;11.03;56.45;100291.81;5085198;28;20036;-69
2022/10/19 06:17:43;;;;;;;23.80;6.78;;;;;;;11.42;55.72;100290.47;5077404;28;20025;-71
2022/10/19 06:20:09;;;;;;;20.85;6.75;;;;;;;11.57;55.80;100297.91;5074848;28;20028;-69
2022/10/19 06:22:35;;;;;;;19.30;7.47;;;;;;;11.63;56.31;100295.47;5077925;28;20037;-69
2022/10/19 06:25:00;;;;;;;17.35;7.50;;;;;;;11.92;55.17;100289.03;5077101;28;20097;-71
2022/10/19 06:27:25;;;;;;;22.48;7.18;;;;;;;12.00;56.05;100287.25;5077084;28;20176;-69
2022/10/19 06:29:51;;;;;;;15.95;7.07;;;;;;;12.25;55.56;100282.06;5076945;28;20040;-73
2022/10/19 06:32:16;;;;;;;12.55;7.18;;;;;;;12.59;54.61;100284.72;5075111;28;20034;-71
2022/10/19 06:34:42;;;;;;;28.17;9.02;;;;;;;12.77;54.21;100290.72;5076633;28;20108;-69
2022/10/19 06:37:07;;;;;;;29.45;9.85;;;;;;;13.03;53.39;100277.31;5076500;28;20040;-69
2022/10/19 06:39:32;;;;;;;14.95;7.55;;;;;;;13.27;53.02;100280.03;5076449;28;20032;-69
2022/10/19 06:41:58;;;;;;;27.73;9.45;;;;;;;13.01;53.82;100276.66;5075932;28;20025;-71
2022/10/19 06:44:24;;;;;;;15.98;8.55;;;;;;;13.13;53.74;100279.81;5078055;28;20088;-69
2022/10/19 06:46:49;;;;;;;41.35;12.50;;;;;;;13.17;54.49;100271.38;5075458;28;20096;-69
2022/10/19 06:49:14;;;;;;;27.63;12.93;;;;;;;13.40;53.58;100264.38;5077598;28;20032;-72
2022/10/19 06:51:40;;;;;;;26.17;9.35;;;;;;;13.51;53.62;100259.72;5074146;28;20234;-69
2022/10/19 06:54:06;;;;;;;23.45;8.65;;;;;;;13.71;52.37;100264.53;5076059;28;20111;-69
2022/10/19 06:56:32;;;;;;;14.15;7.18;;;;;;;13.40;52.62;100258.25;5078893;28;20029;-72
2022/10/19 06:58:58;;;;;;;12.20;7.00;;;;;;;13.77;51.57;100260.38;5083769;28;20028;-70
2022/10/19 07:01:24;;;;;;;32.15;12.93;;;;;;;13.87;51.63;100260.19;5082827;28;20020;-73
2022/10/19 07:03:53;;;;;;;21.60;8.95;;;;;;;13.73;51.46;100251.91;5082546;28;20325;-72
2022/10/19 07:06:19;;;;;;;19.23;7.55;;;;;;;14.03;50.20;100260.13;5083895;28;20081;-69
2022/10/19 07:08:45;;;;;;;19.15;7.47;;;;;;;14.01;49.84;100257.63;5084107;28;20028;-69
2022/10/19 07:11:16;;;;;;;14.82;7.07;;;;;;;14.31;48.97;100248.03;5083439;28;20344;-69
2022/10/19 07:13:42;;;;;;;18.25;7.97;;;;;;;14.55;47.04;100251.59;5084232;28;20052;-72
2022/10/19 07:16:13;;;;;;;20.38;7.10;;;;;;;14.60;46.97;100257.25;5083574;28;20046;-72
2022/10/19 07:18:40;;;;;;;20.20;7.05;;;;;;;14.68;46.88;100257.22;5081184;28;20036;-70
2022/10/19 07:21:08;;;;;;;15.40;6.55;;;;;;;14.65;45.24;100242.41;5083409;28;20214;-69
2022/10/19 07:23:36;;;;;;;14.75;6.53;;;;;;;15.08;44.23;100252.59;5083651;28;20024;-71
2022/10/19 07:26:06;;;;;;;14.65;7.28;;;;;;;14.86;46.22;100249.75;5082957;28;20318;-72
2022/10/19 07:28:33;;;;;;;18.98;7.50;;;;;;;14.92;45.26;100249.03;5083766;28;20115;-69
2022/10/19 07:31:04;;;;;;;14.65;6.80;;;;;;;15.18;43.88;100242.50;5082929;28;20314;-69
2022/10/19 07:33:29;;;;;;;14.20;5.43;;;;;;;15.17;43.71;100241.69;5083392;28;20036;-72
2022/10/19 07:36:03;;;;;;;14.07;6.43;;;;;;;15.05;43.98;100242.28;5083340;28;20337;-69
2022/10/19 07:38:30;;;;;;;16.08;6.32;;;;;;;15.17;44.09;100225.69;5083537;28;20074;-69
2022/10/19 07:41:14;;;;;;;19.30;5.88;;;;;;;15.32;43.17;100193.69;5083243;28;20314;-69
2022/10/19 07:43:42;;;;;;;15.32;5.78;;;;;;;15.32;43.30;100225.72;5083335;28;20051;-69
2022/10/19 07:46:10;;;;;;;11.68;5.80;;;;;;;15.51;42.86;100224.38;5083070;28;20373;-69
2022/10/19 07:48:36;;;;;;;14.93;5.68;;;;;;;16.06;41.88;100226.66;5083357;28;20012;-74
2022/10/19 07:51:05;;;;;;;12.95;5.35;;;;;;;16.04;41.56;100220.66;5082957;28;20071;-72
2022/10/19 07:53:31;;;;;;;9.30;4.80;;;;;;;16.28;41.43;100212.31;5083022;28;20033;-73
2022/10/19 07:56:05;;;;;;;17.17;5.75;;;;;;;16.58;40.21;100204.22;5082652;28;20028;-72
2022/10/19 07:58:31;;;;;;;13.23;5.07;;;;;;;16.58;40.21;100206.91;5082733;28;20052;-68
2022/10/19 08:01:05;;;;;;;15.60;5.93;;;;;;;16.88;39.72;100199.66;5082724;28;20027;-71
2022/10/19 08:03:31;;;;;;;11.75;5.55;;;;;;;16.89;39.38;100198.63;5082874;28;20048;-71
2022/10/19 08:06:04;;;;;;;11.68;4.68;;;;;;;17.10;39.27;100198.59;5081750;28;20044;-72
2022/10/19 08:08:29;;;;;;;16.15;4.47;;;;;;;17.25;38.42;100193.16;5083108;28;20021;-75
2022/10/19 08:10:55;;;;;;;12.85;4.95;;;;;;;17.41;37.70;100179.50;5081160;28;20090;-70
2022/10/19 08:13:22;;;;;;;19.52;5.15;;;;;;;17.44;37.86;100192.47;5081516;28;20024;-74
2022/10/19 08:15:47;;;;;;;14.57;4.97;;;;;;;16.94;38.44;100180.16;5082453;28;20039;-70
2022/10/19 08:18:13;;;;;;;13.93;5.75;;;;;;;17.01;37.74;100169.50;5082931;28;20027;-70
2022/10/19 08:20:43;;;;;;;12.68;4.85;;;;;;;17.16;36.81;100175.59;5082666;28;20039;-71
2022/10/19 08:23:09;;;;;;;20.13;5.45;;;;;;;17.10;37.42;100179.88;5072760;28;20026;-74
2022/10/19 08:25:36;;;;;;;12.95;4.80;;;;;;;17.30;36.88;100180.03;5075213;28;20093;-75
2022/10/19 08:28:01;;;;;;;9.90;4.70;;;;;;;17.36;36.58;100173.91;5070902;28;20024;-73
2022/10/19 08:30:27;;;;;;;12.60;4.95;;;;;;;17.39;37.07;100170.81;5074667;28;20353;-73
2022/10/19 08:32:52;;;;;;;16.48;5.03;;;;;;;17.53;37.19;100166.38;5070918;28;20592;-70
2022/10/19 08:35:17;;;;;;;14.18;4.50;;;;;;;17.32;37.33;100159.25;5070990;28;20043;-74
2022/10/19 08:37:43;;;;;;;12.38;5.45;;;;;;;17.54;36.93;100160.84;5071570;28;20032;-70
2022/10/19 08:40:17;;;;;;;12.90;4.55;;;;;;;17.55;36.83;100158.97;5074136;28;20031;-71
2022/10/19 08:43:04;;;;;;;9.38;4.38;;;;;;;17.44;36.84;100159.53;5073362;28;20021;-73
2022/10/19 08:45:41;;;;;;;9.30;4.50;;;;;;;16.96;37.38;100151.38;5073022;28;20032;-73
2022/10/19 08:48:24;;;;;;;10.15;4.43;;;;;;;17.19;36.95;100146.59;5073406;28;20720;-73
2022/10/19 08:50:50;;;;;;;15.05;4.85;;;;;;;17.31;35.75;100146.06;5074635;28;20259;-73
2022/10/19 08:53:23;;;;;;;8.95;4.30;;;;;;;17.41;35.87;100135.84;5074685;28;20037;-70
2022/10/19 08:55:49;;;;;;;10.45;4.60;;;;;;;17.62;35.28;100140.28;5073402;28;21380;-70
2022/10/19 08:58:33;;;;;;;10.95;4.60;;;;;;;17.57;36.10;100143.53;5073356;28;20024;-73
2022/10/19 09:01:15;;;;;;;15.52;4.20;;;;;;;17.63;35.60;100144.59;5071458;28;20103;-70
2022/10/19 09:04:02;;;;;;;11.02;4.80;;;;;;;17.63;35.49;100145.44;5069539;28;20230;-70
2022/10/19 09:06:48;;;;;;;12.35;5.20;;;;;;;17.64;35.24;100136.38;5070623;28;20024;-71
2022/10/19 09:09:17;;;;;;;8.85;4.55;;;;;;;17.46;35.77;100131.53;5072406;28;20036;-73
2022/10/19 09:11:47;;;;;;;12.40;4.47;;;;;;;17.50;34.53;100123.94;5072260;28;20242;-73
2022/10/19 09:14:19;;;;;;;11.00;4.50;;;;;;;17.43;35.59;100129.25;5075520;28;20032;-70
2022/10/19 09:16:45;;;;;;;43.88;6.65;;;;;;;17.58;35.51;100122.94;5077954;28;20028;-70
2022/10/19 09:19:24;;;;;;;15.80;4.05;;;;;;;17.57;35.00;100119.44;5081322;28;20090;-73
2022/10/19 09:21:55;;;;;;;8.43;4.10;;;;;;;17.53;34.93;100124.38;5081519;28;20265;-70
2022/10/19 09:24:54;;;;;;;9.73;4.78;;;;;;;17.58;36.07;100118.41;5081514;28;20226;-70
2022/10/19 09:27:22;;;;;;;15.73;4.72;;;;;;;17.51;36.56;100114.88;5079766;28;20335;-73
2022/10/19 09:29:55;;;;;;;8.73;4.90;;;;;;;17.67;35.89;100106.56;5081854;28;20104;-73
2022/10/19 09:32:30;;;;;;;11.05;4.40;;;;;;;17.62;35.02;100108.13;5081383;28;20091;-73
2022/10/19 09:35:17;;;;;;;11.45;4.45;;;;;;;17.68;35.91;100102.03;5081620;28;20521;-73
2022/10/19 09:37:47;;;;;;;14.02;3.83;;;;;;;17.73;35.40;100091.56;5081372;28;20238;-70
2022/10/19 09:40:25;;;;;;;18.33;4.78;;;;;;;17.55;35.61;100092.88;5081551;28;20033;-70
2022/10/19 09:42:56;;;;;;;16.48;4.63;;;;;;;17.49;35.69;100092.84;5084023;28;20353;-70
2022/10/19 09:45:38;;;;;;;11.77;4.63;;;;;;;17.71;35.81;100086.41;5088410;28;20098;-70
2022/10/19 09:48:32;;;;;;;10.10;4.25;;;;;;;17.74;35.57;100074.47;5094848;28;20051;-73
2022/10/19 09:51:00;;;;;;;9.73;4.07;;;;;;;17.78;34.94;100087.25;5084075;28;20052;-70
2022/10/19 09:53:26;;;;;;;9.82;3.92;;;;;;;17.87;34.15;100082.56;5085609;28;20345;-70
2022/10/19 09:55:58;;;;;;;18.33;4.30;;;;;;;18.02;35.12;100077.03;5084922;28;20028;-70
2022/10/19 09:58:26;;;;;;;13.85;4.45;;;;;;;17.89;34.58;100085.84;5085178;28;20091;-70
2022/10/19 10:00:54;;;;;;;13.25;4.35;;;;;;;18.04;33.98;100075.81;5085084;28;20036;-73
2022/10/19 10:03:29;;;;;;;12.45;4.30;;;;;;;18.16;33.67;100065.31;5085224;28;20239;-74
2022/10/19 10:06:04;;;;;;;11.65;3.70;;;;;;;18.08;33.35;100050.25;5083743;28;20325;-70
2022/10/19 10:08:33;;;;;;;18.27;4.15;;;;;;;18.08;33.64;100049.41;5085079;28;20037;-74
2022/10/19 10:11:05;;;;;;;11.20;4.25;;;;;;;18.08;34.53;100052.09;5077357;28;20037;-71
2022/10/19 10:13:36;;;;;;;18.63;4.50;;;;;;;17.97;34.85;100052.69;5074771;28;20377;-71
2022/10/19 10:16:05;;;;;;;8.57;3.78;;;;;;;18.23;32.81;100046.56;5075140;28;20099;-73
2022/10/19 10:18:36;;;;;;;13.75;4.05;;;;;;;18.32;33.30;100042.66;5091780;28;20372;-73
2022/10/19 10:21:10;;;;;;;20.38;5.15;;;;;;;18.08;33.82;100036.84;5077703;28;20369;-71
2022/10/19 10:23:36;;;;;;;15.93;4.82;;;;;;;18.22;34.67;100035.00;5078902;28;20123;-71
2022/10/19 10:26:04;;;;;;;12.80;4.00;;;;;;;18.20;34.50;100034.41;5074624;28;20028;-74
2022/10/19 10:28:30;;;;;;;12.32;4.22;;;;;;;17.96;34.09;100033.13;5077242;28;20364;-70
2022/10/19 10:31:00;;;;;;;11.32;3.60;;;;;;;18.11;33.51;100017.69;5078783;28;20032;-74
2022/10/19 10:33:28;;;;;;;16.98;3.67;;;;;;;18.24;33.30;100018.72;5078600;28;20305;-70
2022/10/19 10:36:00;;;;;;;8.30;4.03;;;;;;;18.07;33.44;100015.63;5076328;28;20029;-70
2022/10/19 10:38:29;;;;;;;10.20;3.80;;;;;;;18.03;34.35;100004.47;5075442;28;20025;-74
2022/10/19 10:41:27;;;;;;;12.82;4.00;;;;;;;18.38;33.34;100012.34;5075765;28;20028;-71
2022/10/19 10:44:02;;;;;;;8.43;3.58;;;;;;;18.27;34.26;100000.38;5068152;28;20053;-70
2022/10/19 10:46:35;;;;;;;8.20;3.65;;;;;;;18.35;33.83;99992.13;5073269;28;20060;-70
2022/10/19 10:49:04;;;;;;;12.82;4.07;;;;;;;18.38;33.87;99997.09;5077312;28;20135;-71
2022/10/19 10:51:38;;;;;;;7.63;3.47;;;;;;;18.23;34.63;99992.97;5075233;28;20349;-73
2022/10/19 10:54:19;;;;;;;;;;;;;;;18.43;33.85;99983.88;5075753;28;20266;-73
2022/10/19 10:57:08;;;;;;;8.85;4.13;;;;;;;18.48;34.03;99983.25;5075671;28;19921;-73
2022/10/19 10:59:51;;;;;;;9.45;4.00;;;;;;;18.35;34.29;99975.22;5077086;28;20068;-73
2022/10/19 11:02:30;;;;;;;12.32;3.72;;;;;;;18.39;33.59;99974.59;5080308;28;20119;-71
2022/10/19 11:05:10;;;;;;;13.27;4.20;;;;;;;18.34;34.46;99978.94;5077260;28;20053;-71
2022/10/19 11:07:39;;;;;;;15.50;3.95;;;;;;;18.36;34.78;99968.81;5080227;28;20248;-70
2022/10/19 11:10:19;;;;;;;9.80;3.42;;;;;;;18.47;33.98;99965.53;5075788;28;20040;-70
2022/10/19 11:12:50;;;;;;;8.35;3.45;;;;;;;18.47;33.35;99963.66;5071855;28;20032;-73
2022/10/19 11:15:27;;;;;;;14.98;3.97;;;;;;;18.39;33.56;99950.47;5075195;28;20171;-73
2022/10/19 11:18:06;;;;;;;19.70;4.50;;;;;;;18.26;33.99;99947.81;5077451;28;20031;-74
2022/10/19 11:20:37;;;;;;;12.10;4.20;;;;;;;18.48;32.71;99943.03;5078116;28;20075;-70
2022/10/19 11:23:19;;;;;;;14.80;3.70;;;;;;;18.49;33.24;99950.88;5076551;28;20334;-70
2022/10/19 11:26:12;;;;;;;9.20;4.28;;;;;;;18.69;33.15;99948.19;5079694;28;20336;-70
2022/10/19 11:28:50;;;;;;;13.82;4.60;;;;;;;18.50;33.68;99941.78;5077211;28;20315;-71
2022/10/19 11:31:24;;;;;;;13.52;4.18;;;;;;;18.55;33.66;99943.03;5079517;28;20043;-70
2022/10/19 11:33:55;;;;;;;;;;;;;;;18.55;33.57;99937.66;5077152;28;20029;-70